首页
METAR-TAF:

METAR-TAF

机场 :

High Level, 艾伯塔, 加拿大

纬度: 58-37N, 经度: 117-10W, 海拔: 338米

当前天气观测

该预报发布于30分钟前的13:00 UTC
风速8节,风向
温度 6°C
湿度 81%
气压 1020 hPa
能見度: 14.5公里
少量云层高于12000英尺

METAR: CYOJ 221300Z AUTO 36008KT 9SM FEW120 06/03 A3013 RMK SLP213

时间: 07:30 (13:30 UTC)

预报

该预报发布于52分钟前的12:38 UTC
预报有效从22日的 13点(UTC)到 23日的 01点(UTC)
风速8节,风向
能見度: 10公里
散云层高于12000英尺

TAF: CYOJ 221238Z 2213/2301 36008KT P6SM SCT120 RMK FCST BASED ON AUTO OBS. NXT FCST BY 221900Z

超过4000个机场的气象观测和天气预报(METAR&TAF报告)。

可查询的气象台以黄色和红色小点在地图上表示。

将鼠标移到小点上方,可查看气象台名称。

然后点击查看天气观测和预报。

如需切换地图:点击带黑十字的绿色按钮放大地图;点击带横线的绿色按钮缩小地图;或者点击绿色箭头查看邻近地区的地图。


METAR-TAF: